createdAt,value
2023-09-15T00:00:26.863Z,2.20
2023-09-15T00:02:56.809Z,2.30
2023-09-15T00:05:27.072Z,2.53
2023-09-15T00:07:54.101Z,2.00
2023-09-15T00:10:22.943Z,2.30
2023-09-15T00:12:52.201Z,3.10
2023-09-15T00:15:20.317Z,1.95
2023-09-15T00:17:49.660Z,2.20
2023-09-15T00:20:18.671Z,2.30
2023-09-15T00:22:50.738Z,2.30
2023-09-15T00:25:20.485Z,2.55
2023-09-15T00:27:48.847Z,2.58
2023-09-15T00:30:19.908Z,2.15
2023-09-15T00:32:48.962Z,2.38
2023-09-15T00:35:18.476Z,2.33
2023-09-15T00:37:47.803Z,2.35
2023-09-15T00:40:16.345Z,1.98
2023-09-15T00:42:45.259Z,2.70
2023-09-15T00:45:15.993Z,2.13
2023-09-15T00:47:47.797Z,2.38
2023-09-15T00:50:17.858Z,2.42
2023-09-15T00:52:47.319Z,2.40
2023-09-15T00:55:15.683Z,2.33
2023-09-15T00:57:44.472Z,2.58
2023-09-15T01:00:13.997Z,2.50
2023-09-15T01:08:05.663Z,2.40
2023-09-15T01:10:34.353Z,2.53
2023-09-15T01:13:03.806Z,2.50
2023-09-15T01:15:35.500Z,2.97
2023-09-15T01:18:11.849Z,2.28
2023-09-15T01:21:18.317Z,2.40
2023-09-15T01:24:26.158Z,2.25
2023-09-15T01:27:40.859Z,2.60
2023-09-15T01:30:11.165Z,2.60
2023-09-15T01:32:42.917Z,2.67
2023-09-15T01:35:10.825Z,2.70
2023-09-15T01:37:38.695Z,2.78
2023-09-15T01:40:08.474Z,2.70
2023-09-15T01:42:36.592Z,2.45
2023-09-15T01:45:04.854Z,2.63
2023-09-15T01:47:35.596Z,2.58
2023-09-15T01:50:04.840Z,2.65
2023-09-15T01:52:33.099Z,2.70
2023-09-15T01:55:03.099Z,2.40
2023-09-15T01:57:31.033Z,2.40
2023-09-15T01:59:59.714Z,2.65
2023-09-15T02:02:27.925Z,2.50
2023-09-15T02:04:57.190Z,2.72
2023-09-15T02:07:25.011Z,2.50
2023-09-15T02:09:53.320Z,2.55
2023-09-15T02:12:21.194Z,2.47
2023-09-15T02:14:49.025Z,2.58
2023-09-15T02:17:17.804Z,2.90
2023-09-15T02:19:45.656Z,2.72
2023-09-15T02:22:14.997Z,2.60
2023-09-15T02:24:43.108Z,2.90
2023-09-15T02:27:10.894Z,2.50
2023-09-15T02:29:38.728Z,2.90
2023-09-15T02:32:07.149Z,2.60
2023-09-15T02:34:34.969Z,3.10
2023-09-15T02:37:04.338Z,3.00
2023-09-15T02:39:34.313Z,2.80
2023-09-15T02:42:02.563Z,2.67
2023-09-15T02:44:31.625Z,2.85
2023-09-15T02:46:59.653Z,3.10
2023-09-15T02:49:27.481Z,2.78
2023-09-15T02:51:56.352Z,2.92
2023-09-15T02:54:24.378Z,2.83
2023-09-15T02:56:53.582Z,3.17
2023-09-15T02:59:21.421Z,2.88
2023-09-15T03:01:52.056Z,3.10
2023-09-15T03:04:20.411Z,3.25
2023-09-15T03:06:49.828Z,3.10
2023-09-15T03:09:17.919Z,3.25
2023-09-15T03:11:47.120Z,3.15
2023-09-15T03:14:17.867Z,3.13
2023-09-15T03:16:45.769Z,2.75
2023-09-15T03:19:13.774Z,3.17
2023-09-15T03:21:42.074Z,3.10
2023-09-15T03:24:10.420Z,3.20
2023-09-15T03:26:40.298Z,3.15
2023-09-15T03:29:09.121Z,3.30
2023-09-15T03:31:38.352Z,3.30
2023-09-15T03:34:06.272Z,2.90
2023-09-15T03:36:35.314Z,3.00
2023-09-15T03:39:03.302Z,3.00
2023-09-15T03:41:31.311Z,2.95
2023-09-15T03:44:00.426Z,3.45
2023-09-15T03:46:28.352Z,3.10
2023-09-15T03:48:57.601Z,2.97
2023-09-15T03:51:26.821Z,3.25
2023-09-15T03:53:54.910Z,3.35
2023-09-15T03:56:22.799Z,3.15
2023-09-15T03:58:50.950Z,3.00
2023-09-15T04:01:22.434Z,3.33
2023-09-15T04:03:50.369Z,3.13
2023-09-15T04:06:20.108Z,3.53
2023-09-15T04:08:48.346Z,3.22
2023-09-15T04:11:16.377Z,3.20
2023-09-15T04:13:44.544Z,3.08
2023-09-15T04:16:12.422Z,3.38
2023-09-15T04:18:41.917Z,3.17
2023-09-15T04:21:10.008Z,3.70
2023-09-15T04:23:39.209Z,3.50
2023-09-15T04:26:07.037Z,3.80
2023-09-15T04:28:34.893Z,3.40
2023-09-15T04:31:02.900Z,3.83
2023-09-15T04:33:30.977Z,3.65
2023-09-15T04:35:58.944Z,3.47
2023-09-15T04:38:26.755Z,3.70
2023-09-15T04:40:56.197Z,3.45
2023-09-15T04:43:25.070Z,3.80
2023-09-15T04:45:53.111Z,3.53
2023-09-15T04:48:21.029Z,3.75
2023-09-15T04:50:48.871Z,3.55
2023-09-15T04:53:16.938Z,3.35
2023-09-15T04:55:44.733Z,3.58
2023-09-15T04:58:14.244Z,3.78
2023-09-15T05:03:10.235Z,3.50
2023-09-15T05:05:38.349Z,3.58
2023-09-15T05:08:06.544Z,3.80
2023-09-15T05:10:34.386Z,4.03
2023-09-15T05:13:06.555Z,4.03
2023-09-15T05:15:36.551Z,3.95
2023-09-15T05:18:05.058Z,4.93
2023-09-15T05:20:33.301Z,4.38
2023-09-15T05:23:01.191Z,4.07
2023-09-15T05:25:29.136Z,4.22
2023-09-15T05:27:57.293Z,4.07
2023-09-15T05:30:25.138Z,4.10
2023-09-15T05:32:54.330Z,4.15
2023-09-15T05:35:23.169Z,4.00
2023-09-15T05:37:51.111Z,4.03
2023-09-15T05:40:19.142Z,4.75
2023-09-15T05:42:47.189Z,4.13
2023-09-15T05:45:15.065Z,4.32
2023-09-15T05:47:42.930Z,4.25
2023-09-15T05:50:12.704Z,3.80
2023-09-15T05:52:40.541Z,3.85
2023-09-15T05:55:09.227Z,4.38
2023-09-15T05:57:37.495Z,4.37
2023-09-15T06:00:07.008Z,4.28
2023-09-15T06:02:35.331Z,4.30
2023-09-15T06:05:03.995Z,3.83
2023-09-15T06:07:33.252Z,4.10
2023-09-15T06:10:01.128Z,4.20
2023-09-15T06:12:29.185Z,3.90
2023-09-15T06:14:58.845Z,3.85
2023-09-15T06:17:29.018Z,4.10
2023-09-15T06:19:56.924Z,4.07
2023-09-15T06:22:25.071Z,4.22
2023-09-15T06:24:55.330Z,3.65
2023-09-15T06:27:23.191Z,3.92
2023-09-15T06:29:53.160Z,3.67
2023-09-15T06:32:21.712Z,3.72
2023-09-15T06:34:49.540Z,3.40
2023-09-15T06:37:17.370Z,3.75
2023-09-15T06:39:45.348Z,4.10
2023-09-15T06:42:14.523Z,4.07
2023-09-15T06:44:42.306Z,3.53
2023-09-15T06:47:10.796Z,3.78
2023-09-15T06:49:38.616Z,3.40
2023-09-15T06:52:07.230Z,2.95
2023-09-15T06:54:35.210Z,3.20
2023-09-15T06:57:03.949Z,3.30
2023-09-15T07:02:04.253Z,3.00
2023-09-15T07:04:32.418Z,2.90
2023-09-15T07:07:00.475Z,2.88
2023-09-15T07:09:28.510Z,2.92
2023-09-15T07:11:56.309Z,3.00
2023-09-15T07:14:24.131Z,2.90
2023-09-15T07:16:53.560Z,2.88
2023-09-15T07:21:49.203Z,2.70
2023-09-15T07:24:17.169Z,2.45
2023-09-15T07:26:44.974Z,2.63
2023-09-15T07:29:12.793Z,2.67
2023-09-15T07:31:41.767Z,2.45
2023-09-15T07:34:11.636Z,2.42
2023-09-15T07:36:39.497Z,2.35
2023-09-15T07:39:07.691Z,2.35
2023-09-15T07:41:35.562Z,2.70
2023-09-15T07:44:03.486Z,2.20
2023-09-15T07:46:31.551Z,2.33
2023-09-15T07:48:59.591Z,2.22
2023-09-15T07:51:28.816Z,2.67
2023-09-15T07:53:57.163Z,2.10
2023-09-15T07:56:25.325Z,1.98
2023-09-15T07:58:53.375Z,2.67
2023-09-15T08:01:21.531Z,1.98
2023-09-15T08:03:49.684Z,2.30
2023-09-15T08:06:17.836Z,2.55
2023-09-15T08:08:47.239Z,2.70
2023-09-15T08:13:42.680Z,2.20
2023-09-15T08:16:11.391Z,2.28
2023-09-15T08:18:39.420Z,2.30
2023-09-15T08:21:07.236Z,2.03
2023-09-15T08:23:35.608Z,2.35
2023-09-15T08:26:05.050Z,2.25
2023-09-15T08:28:33.108Z,2.22
2023-09-15T08:31:01.132Z,2.20
2023-09-15T08:33:29.487Z,2.30
2023-09-15T08:35:57.299Z,2.30
2023-09-15T08:38:26.976Z,1.98
2023-09-15T08:41:01.588Z,2.33
2023-09-15T08:43:34.069Z,2.15
2023-09-15T08:46:07.142Z,2.28
2023-09-15T08:48:40.999Z,2.13
2023-09-15T08:51:09.324Z,2.10
2023-09-15T08:53:38.579Z,1.80
2023-09-15T08:56:07.234Z,2.05
2023-09-15T08:58:37.993Z,2.17
2023-09-15T09:01:09.258Z,1.90
2023-09-15T09:03:38.658Z,1.95
2023-09-15T09:08:41.534Z,1.80
2023-09-15T09:11:09.596Z,2.15
2023-09-15T09:13:44.537Z,1.92
2023-09-15T09:16:15.987Z,2.00
2023-09-15T09:18:44.214Z,2.47
2023-09-15T09:21:12.069Z,1.92
2023-09-15T09:23:39.933Z,2.03
2023-09-15T09:26:13.286Z,2.03
2023-09-15T09:28:42.753Z,2.10
2023-09-15T09:33:42.750Z,2.20
2023-09-15T09:36:14.773Z,1.83
2023-09-15T09:38:47.557Z,1.70
2023-09-15T09:41:17.804Z,1.90
2023-09-15T09:43:50.615Z,2.03
2023-09-15T09:46:20.669Z,2.00
2023-09-15T09:48:49.773Z,1.77
2023-09-15T09:51:18.713Z,2.00
2023-09-15T09:53:46.673Z,1.97
2023-09-15T09:56:15.182Z,2.08
2023-09-15T09:58:43.485Z,2.22
2023-09-15T10:01:13.165Z,2.08
2023-09-15T10:03:42.069Z,2.10
2023-09-15T10:06:11.058Z,1.90
2023-09-15T10:08:42.586Z,2.08
2023-09-15T10:11:12.057Z,1.90
2023-09-15T10:13:41.184Z,2.08
2023-09-15T10:16:09.026Z,2.20
2023-09-15T10:18:39.391Z,2.13
2023-09-15T10:21:08.675Z,1.90
2023-09-15T10:26:06.321Z,1.92
2023-09-15T10:31:08.902Z,2.03
2023-09-15T10:33:41.083Z,1.92
2023-09-15T10:36:15.292Z,2.08
2023-09-15T10:38:45.360Z,1.70
2023-09-15T10:41:25.564Z,1.55
2023-09-15T10:43:53.451Z,1.55
2023-09-15T10:46:21.415Z,1.95
2023-09-15T10:48:52.976Z,1.90
2023-09-15T10:51:22.849Z,1.75
2023-09-15T10:53:52.208Z,1.88
2023-09-15T10:58:49.841Z,1.63
2023-09-15T11:01:19.420Z,1.90
2023-09-15T11:03:47.962Z,1.90
2023-09-15T11:06:19.450Z,1.77
2023-09-15T11:08:47.631Z,1.77
2023-09-15T11:11:19.523Z,2.10
2023-09-15T11:13:47.318Z,2.33
2023-09-15T11:16:15.478Z,2.05
2023-09-15T11:18:43.614Z,1.77
2023-09-15T11:21:13.343Z,2.17
2023-09-15T11:23:46.845Z,2.00
2023-09-15T11:26:25.879Z,2.00
2023-09-15T11:28:55.781Z,2.05
2023-09-15T11:31:24.882Z,1.80
2023-09-15T11:33:53.860Z,1.92
2023-09-15T11:38:53.673Z,1.90
2023-09-15T11:41:31.040Z,1.90
2023-09-15T11:43:59.749Z,2.20
2023-09-15T11:46:28.154Z,1.80
2023-09-15T11:48:57.030Z,2.50
2023-09-15T11:51:25.141Z,2.25
2023-09-15T11:53:54.441Z,2.20
2023-09-15T11:58:51.209Z,1.98
2023-09-15T12:01:20.455Z,1.98
2023-09-15T12:06:18.980Z,1.80
2023-09-15T12:08:49.586Z,2.00
2023-09-15T12:11:20.332Z,2.03
2023-09-15T12:13:50.289Z,1.80
2023-09-15T12:16:19.415Z,2.05
2023-09-15T12:18:48.742Z,1.80
2023-09-15T12:21:18.108Z,2.00
2023-09-15T12:23:49.909Z,1.98
2023-09-15T12:26:20.266Z,2.38
2023-09-15T12:28:48.427Z,2.28
2023-09-15T12:31:18.327Z,1.98
2023-09-15T12:33:48.804Z,2.25
2023-09-15T12:38:44.973Z,2.42
2023-09-15T12:41:14.912Z,2.60
2023-09-15T12:43:44.283Z,2.33
2023-09-15T12:46:12.200Z,1.90
2023-09-15T12:48:40.582Z,2.05
2023-09-15T12:51:08.619Z,2.20
2023-09-15T12:53:36.382Z,1.98
2023-09-15T12:56:04.872Z,2.10
2023-09-15T12:58:33.303Z,2.28
2023-09-15T13:01:04.052Z,2.17
2023-09-15T13:03:32.328Z,2.00
2023-09-15T13:06:00.347Z,2.28
2023-09-15T13:08:28.107Z,1.90
2023-09-15T13:13:43.406Z,1.92
2023-09-15T13:16:12.721Z,1.85
2023-09-15T13:21:09.012Z,2.10
2023-09-15T13:23:37.448Z,2.20
2023-09-15T13:26:06.395Z,1.80
2023-09-15T13:28:34.814Z,1.73
2023-09-15T13:31:03.653Z,2.03
2023-09-15T13:33:33.129Z,2.13
2023-09-15T13:36:00.943Z,2.03
2023-09-15T13:38:29.003Z,1.80
2023-09-15T13:40:57.024Z,1.85
2023-09-15T13:43:24.893Z,2.10
2023-09-15T13:45:53.420Z,1.80
2023-09-15T13:48:22.081Z,1.70
2023-09-15T13:50:52.789Z,1.77
2023-09-15T13:53:20.625Z,2.00
2023-09-15T13:55:49.295Z,2.25
2023-09-15T13:58:17.671Z,1.92
2023-09-15T14:00:58.220Z,1.80
2023-09-15T14:03:26.478Z,1.80
2023-09-15T14:05:55.930Z,1.88
2023-09-15T14:08:24.448Z,1.92
2023-09-15T14:10:52.694Z,2.08
2023-09-15T14:13:21.463Z,2.00
2023-09-15T14:15:50.004Z,1.90
2023-09-15T14:18:18.806Z,1.80
2023-09-15T14:20:49.212Z,1.90
2023-09-15T14:23:18.696Z,2.05
2023-09-15T14:25:46.928Z,1.77
2023-09-15T14:28:14.827Z,1.90
2023-09-15T14:30:42.767Z,2.03
2023-09-15T14:33:11.023Z,1.90
2023-09-15T14:35:39.080Z,2.17
2023-09-15T14:38:06.945Z,2.08
2023-09-15T14:40:36.236Z,1.73
2023-09-15T14:45:32.557Z,1.85
2023-09-15T14:48:04.590Z,2.13
2023-09-15T14:50:34.114Z,2.00
2023-09-15T14:53:02.059Z,1.98
2023-09-15T14:55:30.378Z,1.63
2023-09-15T14:57:59.580Z,1.90
2023-09-15T15:00:27.642Z,1.77
2023-09-15T15:02:55.798Z,1.73
2023-09-15T15:05:23.734Z,2.10
2023-09-15T15:07:52.611Z,2.00
2023-09-15T15:10:20.863Z,1.80
2023-09-15T15:12:49.807Z,2.00
2023-09-15T15:15:19.293Z,1.90
2023-09-15T15:17:48.429Z,1.80
2023-09-15T15:20:16.423Z,1.80
2023-09-15T15:22:44.704Z,1.63
2023-09-15T15:25:12.926Z,1.83
2023-09-15T15:27:42.402Z,1.70
2023-09-15T15:30:11.269Z,1.63
2023-09-15T15:32:42.114Z,2.10
2023-09-15T15:35:11.100Z,1.75
2023-09-15T15:37:39.075Z,1.75
2023-09-15T15:40:08.442Z,1.90
2023-09-15T15:45:04.041Z,1.95
2023-09-15T15:47:32.116Z,2.00
2023-09-15T15:50:01.359Z,1.77
2023-09-15T15:54:57.239Z,1.83
2023-09-15T15:57:25.528Z,1.90
2023-09-15T15:59:53.402Z,2.00
2023-09-15T16:02:21.528Z,1.60
2023-09-15T16:04:49.696Z,1.70
2023-09-15T16:07:19.896Z,1.80
2023-09-15T16:09:48.754Z,1.98
2023-09-15T16:12:17.413Z,1.60
2023-09-15T16:14:45.372Z,1.85
2023-09-15T16:17:13.362Z,1.63
2023-09-15T16:19:41.171Z,1.60
2023-09-15T16:22:08.997Z,1.50
2023-09-15T16:24:38.476Z,1.98
2023-09-15T16:27:06.825Z,1.80
2023-09-15T16:29:34.660Z,2.00
2023-09-15T16:32:02.717Z,1.95
2023-09-15T16:34:30.550Z,1.90
2023-09-15T16:36:58.391Z,1.90
2023-09-15T16:39:28.448Z,1.88
2023-09-15T16:41:57.889Z,2.10
2023-09-15T16:44:25.689Z,2.25
2023-09-15T16:46:53.887Z,2.00
2023-09-15T16:49:21.767Z,2.00
2023-09-15T16:51:49.641Z,1.85
2023-09-15T16:54:20.200Z,2.10
2023-09-15T16:56:49.414Z,2.13
2023-09-15T16:59:18.606Z,1.90
2023-09-15T17:01:46.759Z,1.95
2023-09-15T17:04:14.646Z,2.20
2023-09-15T17:06:43.426Z,2.20
2023-09-15T17:09:13.462Z,2.00
2023-09-15T17:11:41.358Z,1.85
2023-09-15T17:14:09.312Z,1.90
2023-09-15T17:16:39.042Z,2.10
2023-09-15T17:19:07.763Z,2.08
2023-09-15T17:21:35.973Z,2.30
2023-09-15T17:24:04.384Z,2.10
2023-09-15T17:26:44.002Z,2.00
2023-09-15T17:29:12.386Z,2.10
2023-09-15T17:31:41.999Z,2.08
2023-09-15T17:34:11.517Z,2.30
2023-09-15T17:36:40.412Z,2.13
2023-09-15T17:39:08.300Z,2.30
2023-09-15T17:41:36.144Z,2.10
2023-09-15T17:44:05.486Z,2.00
2023-09-15T17:46:34.450Z,2.10
2023-09-15T17:49:03.793Z,2.03
2023-09-15T17:54:00.045Z,2.03
2023-09-15T17:56:28.002Z,2.25
2023-09-15T17:58:56.405Z,2.17
2023-09-15T18:01:24.303Z,2.20
2023-09-15T18:03:52.155Z,2.17
2023-09-15T18:06:22.744Z,2.13
2023-09-15T18:08:51.206Z,2.35
2023-09-15T18:11:19.682Z,2.23
2023-09-15T18:13:47.940Z,3.20
2023-09-15T18:16:17.584Z,2.70
2023-09-15T18:18:46.248Z,2.53
2023-09-15T18:21:14.654Z,2.10
2023-09-15T18:23:44.238Z,2.27
2023-09-15T18:26:12.047Z,2.30
2023-09-15T18:28:41.850Z,2.05
2023-09-15T18:31:09.672Z,2.08
2023-09-15T18:33:37.685Z,2.17
2023-09-15T18:36:07.022Z,2.45
2023-09-15T18:38:34.965Z,2.60
2023-09-15T18:41:04.226Z,2.80
2023-09-15T18:43:32.364Z,2.55
2023-09-15T18:46:03.283Z,2.38
2023-09-15T18:48:31.153Z,2.60
2023-09-15T18:50:59.488Z,2.67
2023-09-15T18:53:27.290Z,2.58
2023-09-15T18:55:55.116Z,2.38
2023-09-15T18:58:24.700Z,2.20
2023-09-15T19:00:55.973Z,2.30
2023-09-15T19:03:24.356Z,2.38
2023-09-15T19:05:52.380Z,2.33
2023-09-15T19:08:20.663Z,2.20
2023-09-15T19:10:48.776Z,2.45
2023-09-15T19:13:27.196Z,2.47
2023-09-15T19:15:57.192Z,2.60
2023-09-15T19:18:25.408Z,2.50
2023-09-15T19:20:53.374Z,2.53
2023-09-15T19:23:21.438Z,2.40
2023-09-15T19:25:49.301Z,2.20
2023-09-15T19:28:17.543Z,2.40
2023-09-15T19:30:45.928Z,2.40
2023-09-15T19:33:17.998Z,2.50
2023-09-15T19:35:46.223Z,2.28
2023-09-15T19:38:14.091Z,2.25
2023-09-15T19:40:45.193Z,2.45
2023-09-15T19:43:13.608Z,2.88
2023-09-15T19:45:41.834Z,2.70
2023-09-15T19:48:10.563Z,2.50
2023-09-15T19:50:40.086Z,2.60
2023-09-15T19:55:36.714Z,2.40
2023-09-15T19:58:06.291Z,2.28
2023-09-15T20:00:34.228Z,2.50
2023-09-15T20:03:02.173Z,2.30
2023-09-15T20:05:30.760Z,2.55
2023-09-15T20:08:00.159Z,2.23
2023-09-15T20:12:56.462Z,2.40
2023-09-15T20:15:24.547Z,2.17
2023-09-15T20:17:52.854Z,2.45
2023-09-15T20:20:21.062Z,2.50
2023-09-15T20:22:48.929Z,2.45
2023-09-15T20:25:18.136Z,2.47
2023-09-15T20:27:46.672Z,2.33
2023-09-15T20:30:17.085Z,2.33
2023-09-15T20:32:44.927Z,2.50
2023-09-15T20:35:13.751Z,2.40
2023-09-15T20:37:41.592Z,2.38
2023-09-15T20:40:11.502Z,2.35
2023-09-15T20:42:41.505Z,2.42
2023-09-15T20:45:09.948Z,2.40
2023-09-15T20:47:37.866Z,2.40
2023-09-15T20:50:06.823Z,2.50
2023-09-15T20:52:34.649Z,2.30
2023-09-15T20:55:02.555Z,2.50
2023-09-15T20:57:32.900Z,2.65
2023-09-15T21:00:02.157Z,2.40
2023-09-15T21:02:29.999Z,2.70
2023-09-15T21:04:59.371Z,2.78
2023-09-15T21:07:27.263Z,2.72
2023-09-15T21:09:55.096Z,2.88
2023-09-15T21:12:23.227Z,2.70
2023-09-15T21:14:51.630Z,2.75
2023-09-15T21:17:21.140Z,2.65
2023-09-15T21:22:16.880Z,2.35
2023-09-15T21:24:44.736Z,2.40
2023-09-15T21:27:12.894Z,3.08
2023-09-15T21:29:40.680Z,3.10
2023-09-15T21:32:08.494Z,2.90
2023-09-15T21:34:37.893Z,2.85
2023-09-15T21:37:05.881Z,2.65
2023-09-15T21:39:33.749Z,2.40
2023-09-15T21:42:01.874Z,2.88
2023-09-15T21:44:29.681Z,3.00
2023-09-15T21:46:57.517Z,2.70
2023-09-15T21:49:25.574Z,2.65
2023-09-15T21:51:54.909Z,2.90
2023-09-15T21:54:22.849Z,2.90
2023-09-15T21:56:51.178Z,2.70
2023-09-15T21:59:19.037Z,2.35
2023-09-15T22:01:48.257Z,2.90
2023-09-15T22:04:16.648Z,2.85
2023-09-15T22:06:44.486Z,2.80
2023-09-15T22:09:14.064Z,3.13
2023-09-15T22:14:10.446Z,3.13
2023-09-15T22:16:38.294Z,3.03
2023-09-15T22:19:08.602Z,3.10
2023-09-15T22:21:36.488Z,2.88
2023-09-15T22:24:04.344Z,2.92
2023-09-15T22:26:34.145Z,3.05
2023-09-15T22:29:01.964Z,2.90
2023-09-15T22:31:29.807Z,2.70
2023-09-15T22:33:58.273Z,2.90
2023-09-15T22:36:26.850Z,2.83
2023-09-15T22:38:54.700Z,3.33
2023-09-15T22:41:23.416Z,2.63
2023-09-15T22:43:52.596Z,2.90
2023-09-15T22:46:24.531Z,3.28
2023-09-15T22:48:53.870Z,3.30
2023-09-15T22:53:50.415Z,2.70
2023-09-15T22:56:18.237Z,2.95
2023-09-15T22:58:46.047Z,2.70
2023-09-15T23:01:15.518Z,2.90
2023-09-15T23:03:43.773Z,2.92
2023-09-15T23:06:11.658Z,3.15
2023-09-15T23:08:40.014Z,2.80
2023-09-15T23:11:08.621Z,2.72
2023-09-15T23:13:36.405Z,2.87
2023-09-15T23:16:08.570Z,3.33
2023-09-15T23:18:38.281Z,2.60
2023-09-15T23:23:34.629Z,3.05
2023-09-15T23:26:02.418Z,3.00
2023-09-15T23:28:30.236Z,3.20
2023-09-15T23:30:58.704Z,3.50
2023-09-15T23:33:26.636Z,3.00
2023-09-15T23:35:55.858Z,3.50
2023-09-15T23:38:24.161Z,3.42
2023-09-15T23:40:52.014Z,3.83
2023-09-15T23:43:19.825Z,3.30
2023-09-15T23:45:48.095Z,3.83
2023-09-15T23:48:16.180Z,3.58
2023-09-15T23:50:43.997Z,3.70
2023-09-15T23:53:13.776Z,4.03
2023-09-15T23:55:42.514Z,3.33
2023-09-15T23:58:10.349Z,3.95
